sensor_id;sensor_type;location;lat;lon;timestamp;P1;durP1;ratioP1;P2;durP2;ratioP2
19057;SDS011;9662;53.612;9.914;2023-01-29T00:00:43;611.28;;;291.63;;
19057;SDS011;9662;53.612;9.914;2023-01-29T00:03:10;582.70;;;287.10;;
19057;SDS011;9662;53.612;9.914;2023-01-29T00:05:37;588.20;;;291.80;;
19057;SDS011;9662;53.612;9.914;2023-01-29T00:08:06;605.00;;;286.85;;
19057;SDS011;9662;53.612;9.914;2023-01-29T00:10:33;599.70;;;283.85;;
19057;SDS011;9662;53.612;9.914;2023-01-29T00:13:00;603.47;;;292.60;;
19057;SDS011;9662;53.612;9.914;2023-01-29T00:15:27;606.50;;;292.33;;
19057;SDS011;9662;53.612;9.914;2023-01-29T00:17:54;603.75;;;289.77;;
19057;SDS011;9662;53.612;9.914;2023-01-29T00:20:21;598.80;;;288.38;;
19057;SDS011;9662;53.612;9.914;2023-01-29T00:22:49;565.67;;;282.90;;
19057;SDS011;9662;53.612;9.914;2023-01-29T00:25:17;555.22;;;289.27;;
19057;SDS011;9662;53.612;9.914;2023-01-29T00:27:44;561.27;;;285.83;;
19057;SDS011;9662;53.612;9.914;2023-01-29T00:30:12;568.10;;;277.38;;
19057;SDS011;9662;53.612;9.914;2023-01-29T00:32:43;556.20;;;281.83;;
19057;SDS011;9662;53.612;9.914;2023-01-29T00:35:10;542.37;;;286.63;;
19057;SDS011;9662;53.612;9.914;2023-01-29T00:37:37;558.92;;;284.90;;
19057;SDS011;9662;53.612;9.914;2023-01-29T00:40:05;560.60;;;285.57;;
19057;SDS011;9662;53.612;9.914;2023-01-29T00:42:33;554.67;;;281.35;;
19057;SDS011;9662;53.612;9.914;2023-01-29T00:45:18;545.75;;;279.60;;
19057;SDS011;9662;53.612;9.914;2023-01-29T00:47:45;547.50;;;291.20;;
19057;SDS011;9662;53.612;9.914;2023-01-29T00:50:12;552.45;;;280.38;;
19057;SDS011;9662;53.612;9.914;2023-01-29T00:52:40;567.53;;;274.83;;
19057;SDS011;9662;53.612;9.914;2023-01-29T00:55:07;588.05;;;287.98;;
19057;SDS011;9662;53.612;9.914;2023-01-29T00:57:36;583.25;;;286.15;;
19057;SDS011;9662;53.612;9.914;2023-01-29T01:00:04;560.30;;;278.98;;
19057;SDS011;9662;53.612;9.914;2023-01-29T01:02:32;557.88;;;287.27;;
19057;SDS011;9662;53.612;9.914;2023-01-29T01:05:16;576.28;;;287.40;;
19057;SDS011;9662;53.612;9.914;2023-01-29T01:07:44;580.83;;;281.50;;
19057;SDS011;9662;53.612;9.914;2023-01-29T01:10:12;583.13;;;287.03;;
19057;SDS011;9662;53.612;9.914;2023-01-29T01:12:46;585.17;;;286.10;;
19057;SDS011;9662;53.612;9.914;2023-01-29T01:15:14;556.45;;;282.10;;
19057;SDS011;9662;53.612;9.914;2023-01-29T01:17:41;580.00;;;282.40;;
19057;SDS011;9662;53.612;9.914;2023-01-29T01:20:09;610.00;;;283.30;;
19057;SDS011;9662;53.612;9.914;2023-01-29T01:22:36;571.10;;;290.13;;
19057;SDS011;9662;53.612;9.914;2023-01-29T01:25:04;582.67;;;289.48;;
19057;SDS011;9662;53.612;9.914;2023-01-29T01:27:31;595.43;;;292.83;;
19057;SDS011;9662;53.612;9.914;2023-01-29T01:30:00;611.17;;;301.33;;
19057;SDS011;9662;53.612;9.914;2023-01-29T01:32:27;611.53;;;300.52;;
19057;SDS011;9662;53.612;9.914;2023-01-29T01:34:54;593.83;;;290.45;;
19057;SDS011;9662;53.612;9.914;2023-01-29T01:37:21;590.33;;;291.45;;
19057;SDS011;9662;53.612;9.914;2023-01-29T01:39:48;566.95;;;293.95;;
19057;SDS011;9662;53.612;9.914;2023-01-29T01:42:16;600.03;;;293.67;;
19057;SDS011;9662;53.612;9.914;2023-01-29T01:45:00;592.83;;;290.93;;
19057;SDS011;9662;53.612;9.914;2023-01-29T01:47:29;589.90;;;289.75;;
19057;SDS011;9662;53.612;9.914;2023-01-29T01:49:58;579.28;;;294.98;;
19057;SDS011;9662;53.612;9.914;2023-01-29T01:52:28;549.53;;;289.17;;
19057;SDS011;9662;53.612;9.914;2023-01-29T01:54:57;555.72;;;293.83;;
19057;SDS011;9662;53.612;9.914;2023-01-29T01:57:24;557.10;;;289.17;;
19057;SDS011;9662;53.612;9.914;2023-01-29T01:59:54;569.28;;;282.17;;
19057;SDS011;9662;53.612;9.914;2023-01-29T02:02:23;561.70;;;291.10;;
19057;SDS011;9662;53.612;9.914;2023-01-29T02:05:09;549.95;;;294.38;;
19057;SDS011;9662;53.612;9.914;2023-01-29T02:07:54;561.22;;;295.15;;
19057;SDS011;9662;53.612;9.914;2023-01-29T02:10:41;613.67;;;294.33;;
19057;SDS011;9662;53.612;9.914;2023-01-29T02:13:08;606.92;;;291.95;;
19057;SDS011;9662;53.612;9.914;2023-01-29T02:15:36;627.08;;;299.35;;
19057;SDS011;9662;53.612;9.914;2023-01-29T02:18:07;625.17;;;292.83;;
19057;SDS011;9662;53.612;9.914;2023-01-29T02:20:34;619.35;;;298.27;;
19057;SDS011;9662;53.612;9.914;2023-01-29T02:28:39;564.65;;;294.15;;
19057;SDS011;9662;53.612;9.914;2023-01-29T02:31:11;561.20;;;288.85;;
19057;SDS011;9662;53.612;9.914;2023-01-29T02:33:46;576.25;;;288.88;;
19057;SDS011;9662;53.612;9.914;2023-01-29T02:36:17;579.88;;;297.30;;
19057;SDS011;9662;53.612;9.914;2023-01-29T02:38:48;574.50;;;292.58;;
19057;SDS011;9662;53.612;9.914;2023-01-29T02:41:20;585.17;;;289.85;;
19057;SDS011;9662;53.612;9.914;2023-01-29T02:43:52;566.67;;;298.60;;
19057;SDS011;9662;53.612;9.914;2023-01-29T02:46:21;571.60;;;289.30;;
19057;SDS011;9662;53.612;9.914;2023-01-29T02:48:53;551.00;;;301.83;;
19057;SDS011;9662;53.612;9.914;2023-01-29T02:51:22;572.75;;;304.98;;
19057;SDS011;9662;53.612;9.914;2023-01-29T02:53:52;572.53;;;300.20;;
19057;SDS011;9662;53.612;9.914;2023-01-29T02:56:21;573.38;;;300.35;;
19057;SDS011;9662;53.612;9.914;2023-01-29T02:58:51;591.22;;;300.70;;
19057;SDS011;9662;53.612;9.914;2023-01-29T03:01:21;591.25;;;303.55;;
19057;SDS011;9662;53.612;9.914;2023-01-29T03:03:50;600.97;;;309.80;;
19057;SDS011;9662;53.612;9.914;2023-01-29T03:06:19;583.58;;;301.48;;
19057;SDS011;9662;53.612;9.914;2023-01-29T03:08:49;583.88;;;301.40;;
19057;SDS011;9662;53.612;9.914;2023-01-29T03:11:18;581.13;;;303.67;;
19057;SDS011;9662;53.612;9.914;2023-01-29T03:13:46;570.67;;;301.42;;
19057;SDS011;9662;53.612;9.914;2023-01-29T03:16:17;539.25;;;302.80;;
19057;SDS011;9662;53.612;9.914;2023-01-29T03:18:49;561.08;;;309.90;;
19057;SDS011;9662;53.612;9.914;2023-01-29T03:21:18;555.65;;;302.30;;
19057;SDS011;9662;53.612;9.914;2023-01-29T03:24:04;573.67;;;298.35;;
19057;SDS011;9662;53.612;9.914;2023-01-29T03:26:50;550.17;;;303.17;;
19057;SDS011;9662;53.612;9.914;2023-01-29T03:29:35;557.50;;;296.30;;
19057;SDS011;9662;53.612;9.914;2023-01-29T03:32:21;572.72;;;300.70;;
19057;SDS011;9662;53.612;9.914;2023-01-29T03:34:53;559.85;;;296.48;;
19057;SDS011;9662;53.612;9.914;2023-01-29T03:37:25;567.15;;;293.63;;
19057;SDS011;9662;53.612;9.914;2023-01-29T03:39:53;556.05;;;291.70;;
19057;SDS011;9662;53.612;9.914;2023-01-29T03:42:21;570.03;;;293.20;;
19057;SDS011;9662;53.612;9.914;2023-01-29T03:44:52;532.22;;;296.27;;
19057;SDS011;9662;53.612;9.914;2023-01-29T03:47:21;567.90;;;295.30;;
19057;SDS011;9662;53.612;9.914;2023-01-29T03:49:55;589.85;;;304.38;;
19057;SDS011;9662;53.612;9.914;2023-01-29T03:52:24;551.97;;;294.92;;
19057;SDS011;9662;53.612;9.914;2023-01-29T03:54:53;593.80;;;301.95;;
19057;SDS011;9662;53.612;9.914;2023-01-29T03:57:25;592.47;;;299.08;;
19057;SDS011;9662;53.612;9.914;2023-01-29T03:59:55;593.72;;;297.95;;
19057;SDS011;9662;53.612;9.914;2023-01-29T04:02:29;594.72;;;305.60;;
19057;SDS011;9662;53.612;9.914;2023-01-29T04:05:00;580.83;;;293.50;;
19057;SDS011;9662;53.612;9.914;2023-01-29T04:07:27;564.03;;;302.67;;
19057;SDS011;9662;53.612;9.914;2023-01-29T04:09:58;539.50;;;288.40;;
19057;SDS011;9662;53.612;9.914;2023-01-29T04:12:27;567.13;;;292.15;;
19057;SDS011;9662;53.612;9.914;2023-01-29T04:14:55;593.88;;;300.13;;
19057;SDS011;9662;53.612;9.914;2023-01-29T04:17:26;583.60;;;302.63;;
19057;SDS011;9662;53.612;9.914;2023-01-29T04:19:57;564.85;;;302.17;;
19057;SDS011;9662;53.612;9.914;2023-01-29T04:22:27;543.60;;;293.27;;
19057;SDS011;9662;53.612;9.914;2023-01-29T04:24:56;567.78;;;295.27;;
19057;SDS011;9662;53.612;9.914;2023-01-29T04:27:28;554.80;;;299.23;;
19057;SDS011;9662;53.612;9.914;2023-01-29T04:30:05;556.72;;;292.98;;
19057;SDS011;9662;53.612;9.914;2023-01-29T04:32:36;571.50;;;304.35;;
19057;SDS011;9662;53.612;9.914;2023-01-29T04:35:08;582.27;;;307.37;;
19057;SDS011;9662;53.612;9.914;2023-01-29T04:37:41;576.65;;;292.80;;
19057;SDS011;9662;53.612;9.914;2023-01-29T04:40:17;580.07;;;298.40;;
19057;SDS011;9662;53.612;9.914;2023-01-29T04:42:47;555.60;;;293.53;;
19057;SDS011;9662;53.612;9.914;2023-01-29T04:45:17;580.10;;;296.20;;
19057;SDS011;9662;53.612;9.914;2023-01-29T04:47:47;584.20;;;291.20;;
19057;SDS011;9662;53.612;9.914;2023-01-29T04:50:16;605.15;;;290.70;;
19057;SDS011;9662;53.612;9.914;2023-01-29T04:52:50;643.70;;;298.88;;
19057;SDS011;9662;53.612;9.914;2023-01-29T04:55:24;605.75;;;295.80;;
19057;SDS011;9662;53.612;9.914;2023-01-29T04:57:53;653.87;;;301.30;;
19057;SDS011;9662;53.612;9.914;2023-01-29T05:00:25;629.30;;;298.05;;
19057;SDS011;9662;53.612;9.914;2023-01-29T05:02:53;642.90;;;296.40;;
19057;SDS011;9662;53.612;9.914;2023-01-29T05:05:22;650.35;;;300.83;;
19057;SDS011;9662;53.612;9.914;2023-01-29T05:07:50;590.20;;;298.95;;
19057;SDS011;9662;53.612;9.914;2023-01-29T05:10:19;557.55;;;292.90;;
19057;SDS011;9662;53.612;9.914;2023-01-29T05:12:47;564.50;;;304.10;;
19057;SDS011;9662;53.612;9.914;2023-01-29T05:15:16;561.23;;;294.37;;
19057;SDS011;9662;53.612;9.914;2023-01-29T05:17:44;582.08;;;306.73;;
19057;SDS011;9662;53.612;9.914;2023-01-29T05:20:11;536.50;;;289.40;;
19057;SDS011;9662;53.612;9.914;2023-01-29T05:22:39;536.50;;;289.80;;
19057;SDS011;9662;53.612;9.914;2023-01-29T05:25:11;536.22;;;281.10;;
19057;SDS011;9662;53.612;9.914;2023-01-29T05:27:45;550.47;;;287.77;;
19057;SDS011;9662;53.612;9.914;2023-01-29T05:30:31;555.70;;;287.80;;
19057;SDS011;9662;53.612;9.914;2023-01-29T05:32:58;574.55;;;291.15;;
19057;SDS011;9662;53.612;9.914;2023-01-29T05:35:25;553.10;;;294.90;;
19057;SDS011;9662;53.612;9.914;2023-01-29T05:37:52;566.20;;;296.10;;
19057;SDS011;9662;53.612;9.914;2023-01-29T05:40:21;589.80;;;298.20;;
19057;SDS011;9662;53.612;9.914;2023-01-29T05:42:48;596.45;;;293.75;;
19057;SDS011;9662;53.612;9.914;2023-01-29T05:45:16;600.25;;;300.45;;
19057;SDS011;9662;53.612;9.914;2023-01-29T05:47:43;598.28;;;295.58;;
19057;SDS011;9662;53.612;9.914;2023-01-29T05:50:11;572.60;;;299.10;;
19057;SDS011;9662;53.612;9.914;2023-01-29T05:52:38;617.53;;;305.63;;
19057;SDS011;9662;53.612;9.914;2023-01-29T05:55:06;588.97;;;297.58;;
19057;SDS011;9662;53.612;9.914;2023-01-29T05:57:35;618.53;;;299.55;;
19057;SDS011;9662;53.612;9.914;2023-01-29T06:00:03;662.50;;;313.27;;
19057;SDS011;9662;53.612;9.914;2023-01-29T06:02:30;658.65;;;305.17;;
19057;SDS011;9662;53.612;9.914;2023-01-29T06:04:57;673.25;;;309.95;;
19057;SDS011;9662;53.612;9.914;2023-01-29T06:07:25;670.17;;;304.02;;
19057;SDS011;9662;53.612;9.914;2023-01-29T06:09:52;625.97;;;297.98;;
19057;SDS011;9662;53.612;9.914;2023-01-29T06:12:19;662.53;;;302.02;;
19057;SDS011;9662;53.612;9.914;2023-01-29T06:14:47;605.38;;;296.20;;
19057;SDS011;9662;53.612;9.914;2023-01-29T06:17:15;590.47;;;293.50;;
19057;SDS011;9662;53.612;9.914;2023-01-29T06:19:42;572.90;;;274.83;;
19057;SDS011;9662;53.612;9.914;2023-01-29T06:22:09;584.95;;;294.20;;
19057;SDS011;9662;53.612;9.914;2023-01-29T06:24:36;589.75;;;295.15;;
19057;SDS011;9662;53.612;9.914;2023-01-29T06:27:03;595.08;;;289.30;;
19057;SDS011;9662;53.612;9.914;2023-01-29T06:29:30;584.00;;;286.77;;
19057;SDS011;9662;53.612;9.914;2023-01-29T06:31:58;584.13;;;287.38;;
19057;SDS011;9662;53.612;9.914;2023-01-29T06:34:25;591.70;;;291.27;;
19057;SDS011;9662;53.612;9.914;2023-01-29T06:36:53;601.47;;;289.65;;
19057;SDS011;9662;53.612;9.914;2023-01-29T06:39:20;591.70;;;292.50;;
19057;SDS011;9662;53.612;9.914;2023-01-29T06:41:47;583.33;;;287.63;;
19057;SDS011;9662;53.612;9.914;2023-01-29T06:44:14;596.95;;;292.50;;
19057;SDS011;9662;53.612;9.914;2023-01-29T06:46:41;586.63;;;278.27;;
19057;SDS011;9662;53.612;9.914;2023-01-29T06:49:10;579.28;;;288.40;;
19057;SDS011;9662;53.612;9.914;2023-01-29T06:51:37;591.43;;;288.17;;
19057;SDS011;9662;53.612;9.914;2023-01-29T06:54:04;591.15;;;283.85;;
19057;SDS011;9662;53.612;9.914;2023-01-29T06:56:32;588.38;;;288.17;;
19057;SDS011;9662;53.612;9.914;2023-01-29T06:58:59;625.72;;;289.38;;
19057;SDS011;9662;53.612;9.914;2023-01-29T07:01:27;616.40;;;290.40;;
19057;SDS011;9662;53.612;9.914;2023-01-29T07:03:54;611.03;;;287.25;;
19057;SDS011;9662;53.612;9.914;2023-01-29T07:06:27;639.90;;;295.95;;
19057;SDS011;9662;53.612;9.914;2023-01-29T07:08:54;660.17;;;292.65;;
19057;SDS011;9662;53.612;9.914;2023-01-29T07:11:21;698.15;;;294.35;;
19057;SDS011;9662;53.612;9.914;2023-01-29T07:13:48;678.38;;;292.98;;
19057;SDS011;9662;53.612;9.914;2023-01-29T07:16:16;698.22;;;301.63;;
19057;SDS011;9662;53.612;9.914;2023-01-29T07:18:43;714.42;;;304.13;;
19057;SDS011;9662;53.612;9.914;2023-01-29T07:21:10;680.55;;;291.63;;
19057;SDS011;9662;53.612;9.914;2023-01-29T07:23:39;725.00;;;304.38;;
19057;SDS011;9662;53.612;9.914;2023-01-29T07:26:06;696.22;;;297.13;;
19057;SDS011;9662;53.612;9.914;2023-01-29T07:28:34;740.15;;;304.33;;
19057;SDS011;9662;53.612;9.914;2023-01-29T07:31:01;739.83;;;307.80;;
19057;SDS011;9662;53.612;9.914;2023-01-29T07:33:29;737.30;;;304.65;;
19057;SDS011;9662;53.612;9.914;2023-01-29T07:35:56;731.42;;;294.55;;
19057;SDS011;9662;53.612;9.914;2023-01-29T07:38:23;740.05;;;296.85;;
19057;SDS011;9662;53.612;9.914;2023-01-29T07:40:51;808.42;;;306.02;;
19057;SDS011;9662;53.612;9.914;2023-01-29T07:43:19;1228.82;;;366.80;;
19057;SDS011;9662;53.612;9.914;2023-01-29T07:45:48;707.78;;;290.40;;
19057;SDS011;9662;53.612;9.914;2023-01-29T07:48:16;686.33;;;285.67;;
19057;SDS011;9662;53.612;9.914;2023-01-29T07:50:43;669.10;;;286.25;;
19057;SDS011;9662;53.612;9.914;2023-01-29T07:53:11;678.63;;;291.45;;
19057;SDS011;9662;53.612;9.914;2023-01-29T07:55:38;702.70;;;294.13;;
19057;SDS011;9662;53.612;9.914;2023-01-29T07:58:07;694.88;;;295.42;;
19057;SDS011;9662;53.612;9.914;2023-01-29T08:00:34;709.17;;;302.20;;
19057;SDS011;9662;53.612;9.914;2023-01-29T08:03:02;657.75;;;289.48;;
19057;SDS011;9662;53.612;9.914;2023-01-29T08:05:29;626.90;;;289.70;;
19057;SDS011;9662;53.612;9.914;2023-01-29T08:07:56;625.10;;;289.50;;
19057;SDS011;9662;53.612;9.914;2023-01-29T08:10:23;637.90;;;298.65;;
19057;SDS011;9662;53.612;9.914;2023-01-29T08:12:54;642.13;;;297.65;;
19057;SDS011;9662;53.612;9.914;2023-01-29T08:15:23;652.95;;;296.40;;
19057;SDS011;9662;53.612;9.914;2023-01-29T08:17:50;1269.20;;;411.17;;
19057;SDS011;9662;53.612;9.914;2023-01-29T08:20:17;1299.45;;;546.67;;
19057;SDS011;9662;53.612;9.914;2023-01-29T08:22:45;903.83;;;313.42;;
19057;SDS011;9662;53.612;9.914;2023-01-29T08:25:12;906.27;;;312.57;;
19057;SDS011;9662;53.612;9.914;2023-01-29T08:27:39;886.50;;;314.50;;
19057;SDS011;9662;53.612;9.914;2023-01-29T08:30:07;850.80;;;309.08;;
19057;SDS011;9662;53.612;9.914;2023-01-29T08:32:36;887.30;;;311.52;;
19057;SDS011;9662;53.612;9.914;2023-01-29T08:35:03;907.40;;;314.33;;
19057;SDS011;9662;53.612;9.914;2023-01-29T08:37:31;917.27;;;320.90;;
19057;SDS011;9662;53.612;9.914;2023-01-29T08:39:58;894.10;;;319.98;;
19057;SDS011;9662;53.612;9.914;2023-01-29T08:42:25;879.00;;;309.23;;
19057;SDS011;9662;53.612;9.914;2023-01-29T08:44:52;886.90;;;323.27;;
19057;SDS011;9662;53.612;9.914;2023-01-29T08:47:19;870.05;;;323.67;;
19057;SDS011;9662;53.612;9.914;2023-01-29T08:49:48;847.72;;;315.73;;
19057;SDS011;9662;53.612;9.914;2023-01-29T08:52:15;859.37;;;325.90;;
19057;SDS011;9662;53.612;9.914;2023-01-29T08:54:42;896.47;;;327.98;;
19057;SDS011;9662;53.612;9.914;2023-01-29T08:57:09;909.20;;;328.33;;
19057;SDS011;9662;53.612;9.914;2023-01-29T08:59:36;892.55;;;323.77;;
19057;SDS011;9662;53.612;9.914;2023-01-29T09:02:03;903.15;;;326.08;;
19057;SDS011;9662;53.612;9.914;2023-01-29T09:04:30;843.25;;;319.70;;
19057;SDS011;9662;53.612;9.914;2023-01-29T09:06:59;853.20;;;331.63;;
19057;SDS011;9662;53.612;9.914;2023-01-29T09:09:26;876.13;;;332.98;;
19057;SDS011;9662;53.612;9.914;2023-01-29T09:11:53;879.40;;;325.77;;
19057;SDS011;9662;53.612;9.914;2023-01-29T09:14:20;861.92;;;329.42;;
19057;SDS011;9662;53.612;9.914;2023-01-29T09:16:47;889.50;;;326.27;;
19057;SDS011;9662;53.612;9.914;2023-01-29T09:19:15;851.97;;;330.57;;
19057;SDS011;9662;53.612;9.914;2023-01-29T09:21:42;875.10;;;325.45;;
19057;SDS011;9662;53.612;9.914;2023-01-29T09:24:11;871.80;;;329.77;;
19057;SDS011;9662;53.612;9.914;2023-01-29T09:26:38;865.03;;;322.85;;
19057;SDS011;9662;53.612;9.914;2023-01-29T09:29:05;877.08;;;330.17;;
19057;SDS011;9662;53.612;9.914;2023-01-29T09:31:32;902.53;;;336.33;;
19057;SDS011;9662;53.612;9.914;2023-01-29T09:33:59;909.40;;;330.85;;
19057;SDS011;9662;53.612;9.914;2023-01-29T09:36:26;876.30;;;338.53;;
19057;SDS011;9662;53.612;9.914;2023-01-29T09:38:53;883.53;;;337.77;;
19057;SDS011;9662;53.612;9.914;2023-01-29T09:41:28;870.38;;;333.70;;
19057;SDS011;9662;53.612;9.914;2023-01-29T09:43:58;896.80;;;337.73;;
19057;SDS011;9662;53.612;9.914;2023-01-29T09:46:27;906.53;;;333.83;;
19057;SDS011;9662;53.612;9.914;2023-01-29T09:48:57;909.08;;;341.83;;
19057;SDS011;9662;53.612;9.914;2023-01-29T09:51:27;884.90;;;332.50;;
19057;SDS011;9662;53.612;9.914;2023-01-29T09:53:57;921.10;;;340.13;;
19057;SDS011;9662;53.612;9.914;2023-01-29T09:56:30;889.03;;;341.65;;
19057;SDS011;9662;53.612;9.914;2023-01-29T09:58:57;906.80;;;339.40;;
19057;SDS011;9662;53.612;9.914;2023-01-29T10:01:26;951.27;;;348.80;;
19057;SDS011;9662;53.612;9.914;2023-01-29T10:04:03;965.25;;;353.27;;
19057;SDS011;9662;53.612;9.914;2023-01-29T10:06:36;921.92;;;345.85;;
19057;SDS011;9662;53.612;9.914;2023-01-29T10:09:21;943.38;;;343.02;;
19057;SDS011;9662;53.612;9.914;2023-01-29T10:11:54;940.78;;;341.25;;
19057;SDS011;9662;53.612;9.914;2023-01-29T10:14:27;921.67;;;343.40;;
19057;SDS011;9662;53.612;9.914;2023-01-29T10:16:59;940.22;;;349.00;;
19057;SDS011;9662;53.612;9.914;2023-01-29T10:22:28;983.33;;;347.65;;
19057;SDS011;9662;53.612;9.914;2023-01-29T10:25:00;912.15;;;345.70;;
19057;SDS011;9662;53.612;9.914;2023-01-29T10:27:31;966.10;;;352.65;;
19057;SDS011;9662;53.612;9.914;2023-01-29T10:29:59;956.55;;;353.42;;
19057;SDS011;9662;53.612;9.914;2023-01-29T10:32:29;946.22;;;343.27;;
19057;SDS011;9662;53.612;9.914;2023-01-29T10:34:59;968.22;;;350.02;;
19057;SDS011;9662;53.612;9.914;2023-01-29T10:37:30;929.70;;;344.23;;
19057;SDS011;9662;53.612;9.914;2023-01-29T10:40:15;918.20;;;346.42;;
19057;SDS011;9662;53.612;9.914;2023-01-29T10:42:45;971.88;;;356.65;;
19057;SDS011;9662;53.612;9.914;2023-01-29T10:45:16;937.65;;;351.00;;
19057;SDS011;9662;53.612;9.914;2023-01-29T10:47:56;940.13;;;359.30;;
19057;SDS011;9662;53.612;9.914;2023-01-29T10:53:20;882.42;;;354.40;;
19057;SDS011;9662;53.612;9.914;2023-01-29T10:55:52;883.03;;;349.70;;
19057;SDS011;9662;53.612;9.914;2023-01-29T10:58:24;898.88;;;346.58;;
19057;SDS011;9662;53.612;9.914;2023-01-29T11:00:53;909.17;;;350.67;;
19057;SDS011;9662;53.612;9.914;2023-01-29T11:03:21;921.67;;;353.60;;
19057;SDS011;9662;53.612;9.914;2023-01-29T11:05:50;894.42;;;351.00;;
19057;SDS011;9662;53.612;9.914;2023-01-29T11:08:20;854.33;;;348.40;;
19057;SDS011;9662;53.612;9.914;2023-01-29T11:10:50;855.63;;;352.75;;
19057;SDS011;9662;53.612;9.914;2023-01-29T11:13:19;856.42;;;346.80;;
19057;SDS011;9662;53.612;9.914;2023-01-29T11:15:49;865.33;;;353.25;;
19057;SDS011;9662;53.612;9.914;2023-01-29T11:18:17;941.55;;;358.25;;
19057;SDS011;9662;53.612;9.914;2023-01-29T11:20:44;939.87;;;353.77;;
19057;SDS011;9662;53.612;9.914;2023-01-29T11:23:24;981.20;;;363.70;;
19057;SDS011;9662;53.612;9.914;2023-01-29T11:25:53;1010.65;;;364.75;;
19057;SDS011;9662;53.612;9.914;2023-01-29T11:28:34;969.30;;;354.30;;
19057;SDS011;9662;53.612;9.914;2023-01-29T11:31:03;930.88;;;349.75;;
19057;SDS011;9662;53.612;9.914;2023-01-29T11:33:40;908.30;;;355.02;;
19057;SDS011;9662;53.612;9.914;2023-01-29T11:39:12;949.17;;;356.92;;
19057;SDS011;9662;53.612;9.914;2023-01-29T11:41:41;944.53;;;359.38;;
19057;SDS011;9662;53.612;9.914;2023-01-29T11:44:16;914.22;;;348.25;;
19057;SDS011;9662;53.612;9.914;2023-01-29T11:46:45;943.20;;;350.88;;
19057;SDS011;9662;53.612;9.914;2023-01-29T11:49:18;943.20;;;356.63;;
19057;SDS011;9662;53.612;9.914;2023-01-29T11:51:50;955.60;;;356.70;;
19057;SDS011;9662;53.612;9.914;2023-01-29T11:54:18;951.07;;;359.80;;
19057;SDS011;9662;53.612;9.914;2023-01-29T11:56:45;965.83;;;362.73;;
19057;SDS011;9662;53.612;9.914;2023-01-29T12:02:28;978.45;;;362.00;;
19057;SDS011;9662;53.612;9.914;2023-01-29T12:04:59;971.77;;;358.10;;
19057;SDS011;9662;53.612;9.914;2023-01-29T12:07:27;1017.47;;;374.55;;
19057;SDS011;9662;53.612;9.914;2023-01-29T12:09:56;1012.83;;;377.05;;
19057;SDS011;9662;53.612;9.914;2023-01-29T12:12:31;1046.95;;;378.25;;
19057;SDS011;9662;53.612;9.914;2023-01-29T12:15:15;1027.68;;;367.73;;
19057;SDS011;9662;53.612;9.914;2023-01-29T12:17:46;1004.00;;;370.42;;
19057;SDS011;9662;53.612;9.914;2023-01-29T12:20:18;987.75;;;379.58;;
19057;SDS011;9662;53.612;9.914;2023-01-29T12:22:49;982.30;;;369.88;;
19057;SDS011;9662;53.612;9.914;2023-01-29T12:25:19;998.85;;;374.83;;
19057;SDS011;9662;53.612;9.914;2023-01-29T12:27:47;999.58;;;375.42;;
19057;SDS011;9662;53.612;9.914;2023-01-29T12:30:18;952.40;;;374.17;;
19057;SDS011;9662;53.612;9.914;2023-01-29T12:32:48;963.38;;;372.88;;
19057;SDS011;9662;53.612;9.914;2023-01-29T12:35:20;878.47;;;357.92;;
19057;SDS011;9662;53.612;9.914;2023-01-29T12:37:50;934.10;;;362.65;;
19057;SDS011;9662;53.612;9.914;2023-01-29T12:40:20;932.10;;;378.52;;
19057;SDS011;9662;53.612;9.914;2023-01-29T12:42:50;911.22;;;367.75;;
19057;SDS011;9662;53.612;9.914;2023-01-29T12:45:20;920.15;;;371.85;;
19057;SDS011;9662;53.612;9.914;2023-01-29T12:47:50;909.40;;;373.30;;
19057;SDS011;9662;53.612;9.914;2023-01-29T12:50:18;916.22;;;385.67;;
19057;SDS011;9662;53.612;9.914;2023-01-29T12:52:46;912.87;;;375.30;;
19057;SDS011;9662;53.612;9.914;2023-01-29T12:55:15;911.65;;;375.13;;
19057;SDS011;9662;53.612;9.914;2023-01-29T12:57:45;898.45;;;378.67;;
19057;SDS011;9662;53.612;9.914;2023-01-29T13:00:15;900.28;;;371.17;;
19057;SDS011;9662;53.612;9.914;2023-01-29T13:02:46;914.25;;;377.17;;
19057;SDS011;9662;53.612;9.914;2023-01-29T13:05:17;918.15;;;381.23;;
19057;SDS011;9662;53.612;9.914;2023-01-29T13:07:45;915.30;;;369.27;;
19057;SDS011;9662;53.612;9.914;2023-01-29T13:10:15;917.40;;;372.25;;
19057;SDS011;9662;53.612;9.914;2023-01-29T13:12:47;929.33;;;375.13;;
19057;SDS011;9662;53.612;9.914;2023-01-29T13:15:19;931.80;;;371.50;;
19057;SDS011;9662;53.612;9.914;2023-01-29T13:17:48;930.13;;;368.95;;
19057;SDS011;9662;53.612;9.914;2023-01-29T13:20:19;947.65;;;367.38;;
19057;SDS011;9662;53.612;9.914;2023-01-29T13:22:48;942.45;;;366.88;;
19057;SDS011;9662;53.612;9.914;2023-01-29T13:25:16;972.90;;;355.38;;
19057;SDS011;9662;53.612;9.914;2023-01-29T13:27:44;946.08;;;362.90;;
19057;SDS011;9662;53.612;9.914;2023-01-29T13:30:22;905.00;;;365.10;;
19057;SDS011;9662;53.612;9.914;2023-01-29T13:32:50;905.30;;;366.75;;
19057;SDS011;9662;53.612;9.914;2023-01-29T13:35:19;909.58;;;363.95;;
19057;SDS011;9662;53.612;9.914;2023-01-29T13:37:48;905.08;;;357.85;;
19057;SDS011;9662;53.612;9.914;2023-01-29T13:40:20;903.08;;;360.52;;
19057;SDS011;9662;53.612;9.914;2023-01-29T13:42:48;902.05;;;356.83;;
19057;SDS011;9662;53.612;9.914;2023-01-29T13:45:18;918.35;;;366.15;;
19057;SDS011;9662;53.612;9.914;2023-01-29T13:47:46;924.78;;;362.40;;
19057;SDS011;9662;53.612;9.914;2023-01-29T13:50:17;877.45;;;358.95;;
19057;SDS011;9662;53.612;9.914;2023-01-29T13:52:51;872.25;;;357.27;;
19057;SDS011;9662;53.612;9.914;2023-01-29T13:55:20;891.17;;;364.90;;
19057;SDS011;9662;53.612;9.914;2023-01-29T13:57:51;894.50;;;361.70;;
19057;SDS011;9662;53.612;9.914;2023-01-29T14:05:55;909.55;;;358.23;;
19057;SDS011;9662;53.612;9.914;2023-01-29T14:08:38;911.67;;;358.37;;
19057;SDS011;9662;53.612;9.914;2023-01-29T14:13:51;925.40;;;362.15;;
19057;SDS011;9662;53.612;9.914;2023-01-29T14:16:25;919.92;;;349.58;;
19057;SDS011;9662;53.612;9.914;2023-01-29T14:18:55;909.90;;;354.35;;
19057;SDS011;9662;53.612;9.914;2023-01-29T14:21:23;920.67;;;365.35;;
19057;SDS011;9662;53.612;9.914;2023-01-29T14:23:55;924.17;;;353.48;;
19057;SDS011;9662;53.612;9.914;2023-01-29T14:26:25;926.65;;;356.83;;
19057;SDS011;9662;53.612;9.914;2023-01-29T14:28:55;930.57;;;352.07;;
19057;SDS011;9662;53.612;9.914;2023-01-29T14:31:29;930.28;;;354.10;;
19057;SDS011;9662;53.612;9.914;2023-01-29T14:34:00;1013.47;;;356.23;;
19057;SDS011;9662;53.612;9.914;2023-01-29T14:36:27;1037.40;;;342.52;;
19057;SDS011;9662;53.612;9.914;2023-01-29T14:38:56;1248.63;;;348.38;;
19057;SDS011;9662;53.612;9.914;2023-01-29T14:41:25;1324.10;;;343.20;;
19057;SDS011;9662;53.612;9.914;2023-01-29T14:46:43;1287.25;;;314.23;;
19057;SDS011;9662;53.612;9.914;2023-01-29T14:49:10;1155.03;;;316.40;;
19057;SDS011;9662;53.612;9.914;2023-01-29T14:51:39;655.35;;;338.40;;